Terminal Aerodrome Forecast
Issued by NWS

Home | Current Version | Previous Version | Text Only | Print | Product List | Glossary Off
Versions: 1 2 3 4 5 6 7 8 9 10 11 12 13 14 15 16 17 18 19

000
FTUS43 KBIS 192331
TAFDIK
TAF
KDIK 192331Z 2000/2024 24012KT P6SM VCSH OVC050
     FM200300 25012KT P6SM OVC100
     FM201600 23017G25KT P6SM SCT250=

USA.gov is the U.S. government's official web portal to all federal, state and local government web resources and services.